Time;durP1;ratioP1;P1;durP2;ratioP2;P2;SDS_P1;SDS_P2;PMS_P1;PMS_P2;Temp;Humidity;BMP_temperature;BMP_pressure;BME280_temperature;BME280_humidity;BME280_pressure;Samples;Min_cycle;Max_cycle;Signal;HPM_P1;HPM_P2
2022/04/17 00:00:52;;;;;;;4.60;4.10;;;8.70;39.20;;;;;;5067798;28;20189;-47
2022/04/17 00:03:21;;;;;;;4.20;3.90;;;8.70;39.40;;;;;;5070101;28;20192;-47
2022/04/17 00:05:50;;;;;;;4.40;3.93;;;8.60;39.40;;;;;;5068089;28;20957;-47
2022/04/17 00:08:16;;;;;;;6.97;4.00;;;8.60;39.50;;;;;;5068100;28;21050;-47
2022/04/17 00:10:42;;;;;;;4.73;4.33;;;8.60;39.60;;;;;;5069599;28;20453;-52
2022/04/17 00:13:07;;;;;;;4.50;4.10;;;8.50;39.70;;;;;;5067743;28;20190;-47
2022/04/17 00:15:33;;;;;;;3.90;3.60;;;8.50;39.70;;;;;;5069281;28;20170;-47
2022/04/17 00:17:59;;;;;;;5.03;4.20;;;8.50;39.90;;;;;;5068734;28;20848;-47
2022/04/17 00:20:24;;;;;;;4.83;4.37;;;8.40;39.80;;;;;;5051974;28;20183;-47
2022/04/17 00:22:50;;;;;;;4.80;4.40;;;8.40;40.00;;;;;;5066851;28;20264;-46
2022/04/17 00:25:16;;;;;;;4.40;3.87;;;8.40;40.00;;;;;;5069225;28;20185;-47
2022/04/17 00:27:42;;;;;;;5.60;4.03;;;8.30;39.90;;;;;;5067553;28;20266;-47
2022/04/17 00:30:09;;;;;;;6.67;4.13;;;8.30;40.00;;;;;;5069529;28;20722;-47
2022/04/17 00:32:36;;;;;;;5.30;4.63;;;8.30;40.00;;;;;;5068232;28;20697;-47
2022/04/17 00:35:05;;;;;;;6.03;4.33;;;8.30;40.10;;;;;;5069810;28;20422;-47
2022/04/17 00:37:31;;;;;;;4.43;3.70;;;8.30;40.20;;;;;;5068504;28;20431;-47
2022/04/17 00:39:56;;;;;;;4.83;4.43;;;8.20;40.20;;;;;;5067144;28;21097;-47
2022/04/17 00:42:22;;;;;;;5.00;4.50;;;8.20;40.20;;;;;;5066916;28;20267;-47
2022/04/17 00:44:48;;;;;;;8.27;4.20;;;8.20;40.10;;;;;;5069755;28;20228;-47
2022/04/17 00:47:16;;;;;;;4.63;4.23;;;8.20;40.10;;;;;;5066988;28;20646;-48
2022/04/17 00:49:43;;;;;;;4.40;4.00;;;8.20;40.20;;;;;;5067550;28;20190;-46
2022/04/17 00:52:09;;;;;;;6.17;4.37;;;8.10;40.00;;;;;;5067085;28;20551;-46
2022/04/17 00:54:36;;;;;;;6.80;4.30;;;8.10;40.10;;;;;;5068101;28;20817;-46
2022/04/17 00:57:03;;;;;;;4.73;4.33;;;8.10;40.20;;;;;;5066368;28;20189;-46
2022/04/17 00:59:29;;;;;;;5.33;4.83;;;8.00;40.70;;;;;;5063854;28;20428;-46
2022/04/17 01:01:55;;;;;;;5.80;5.20;;;8.00;40.50;;;;;;5065282;28;20977;-46
2022/04/17 01:04:20;;;;;;;8.53;4.83;;;8.00;40.50;;;;;;5068438;28;20503;-46
2022/04/17 01:06:46;;;;;;;4.73;4.27;;;7.90;40.50;;;;;;5068826;28;20185;-46
2022/04/17 01:09:12;;;;;;;6.27;5.63;;;7.90;40.60;;;;;;5068349;28;20181;-50
2022/04/17 01:11:40;;;;;;;6.50;4.73;;;7.90;40.70;;;;;;5068072;28;20524;-46
2022/04/17 01:14:08;;;;;;;5.60;5.10;;;7.80;40.60;;;;;;5057260;28;20554;-45
2022/04/17 01:16:35;;;;;;;5.03;4.37;;;7.80;40.70;;;;;;5066140;28;20432;-46
2022/04/17 01:19:04;;;;;;;5.13;4.63;;;7.80;40.80;;;;;;5065983;28;20838;-46
2022/04/17 01:27:36;;;;;;;5.47;4.97;;;7.70;41.00;;;;;;5055395;28;20502;-46
2022/04/17 01:30:03;;;;;;;5.63;5.13;;;7.70;41.10;;;;;;5052233;28;20496;-45
2022/04/17 01:32:29;;;;;;;5.47;4.97;;;7.60;41.10;;;;;;5054685;28;20248;-45
2022/04/17 01:34:55;;;;;;;5.87;4.40;;;7.60;41.20;;;;;;5053816;28;20413;-45
2022/04/17 01:37:20;;;;;;;7.50;5.00;;;7.60;41.30;;;;;;5055285;28;20445;-45
2022/04/17 01:39:46;;;;;;;6.23;5.63;;;7.60;41.30;;;;;;5055778;28;20208;-45
2022/04/17 01:42:12;;;;;;;5.60;5.10;;;7.60;41.40;;;;;;5053759;28;20351;-45
2022/04/17 01:44:38;;;;;;;5.53;5.03;;;7.50;41.50;;;;;;5055199;28;20607;-44
2022/04/17 01:47:05;;;;;;;6.50;5.10;;;7.40;41.50;;;;;;5053663;28;20464;-45
2022/04/17 01:49:30;;;;;;;5.87;5.27;;;7.40;41.80;;;;;;5054745;28;20478;-45
2022/04/17 01:51:56;;;;;;;5.70;5.20;;;7.40;41.90;;;;;;5054792;28;20420;-45
2022/04/17 01:54:25;;;;;;;5.43;4.93;;;7.30;41.90;;;;;;5053290;28;20478;-45
2022/04/17 01:56:51;;;;;;;6.30;4.93;;;7.30;42.10;;;;;;5051867;28;20441;-45
2022/04/17 01:59:18;;;;;;;4.70;4.30;;;7.30;42.20;;;;;;5053438;28;20429;-45
2022/04/17 02:01:44;;;;;;;6.37;5.77;;;7.20;42.20;;;;;;5053125;28;20421;-45
2022/04/17 02:04:10;;;;;;;6.00;5.33;;;7.30;42.70;;;;;;5053813;28;20427;-45
2022/04/17 02:06:40;;;;;;;6.00;5.40;;;7.20;42.30;;;;;;5053238;28;20570;-45
2022/04/17 02:09:08;;;;;;;6.10;5.50;;;7.20;42.30;;;;;;5053807;28;20484;-45
2022/04/17 02:11:34;;;;;;;4.73;4.33;;;7.10;42.30;;;;;;5052585;28;20496;-45
2022/04/17 02:14:00;;;;;;;5.70;5.20;;;7.10;42.30;;;;;;5052391;28;20417;-45
2022/04/17 02:16:26;;;;;;;5.83;4.73;;;7.10;42.30;;;;;;5054173;28;20739;-45
2022/04/17 02:18:52;;;;;;;5.13;4.70;;;7.10;42.30;;;;;;5052390;28;20498;-45
2022/04/17 02:21:19;;;;;;;6.50;5.80;;;7.10;42.30;;;;;;5054763;28;20749;-45
2022/04/17 02:23:45;;;;;;;6.30;5.07;;;7.10;42.40;;;;;;5054388;28;20434;-46
2022/04/17 02:26:12;;;;;;;5.63;5.13;;;7.10;42.30;;;;;;5054082;28;20486;-45
2022/04/17 02:28:40;;;;;;;8.03;5.67;;;7.10;42.30;;;;;;5054119;28;20567;-45
2022/04/17 02:31:06;;;;;;;5.83;5.33;;;7.00;42.20;;;;;;5054070;28;20715;-46
2022/04/17 02:33:32;;;;;;;5.30;4.90;;;7.00;42.20;;;;;;5054411;28;20423;-45
2022/04/17 02:35:58;;;;;;;6.23;5.63;;;7.00;42.30;;;;;;5058473;28;20447;-45
2022/04/17 02:38:24;;;;;;;7.00;6.17;;;7.00;42.30;;;;;;5066858;28;20424;-46
2022/04/17 02:40:50;;;;;;;7.40;5.30;;;7.00;42.40;;;;;;5066872;28;20849;-46
2022/04/17 02:43:15;;;;;;;6.33;5.53;;;7.00;42.50;;;;;;5067278;28;20492;-45
2022/04/17 02:45:41;;;;;;;6.00;5.40;;;7.00;42.50;;;;;;5068327;28;20435;-46
2022/04/17 02:48:07;;;;;;;6.60;6.00;;;6.90;42.50;;;;;;5068133;28;20213;-45
2022/04/17 02:50:33;;;;;;;6.30;5.60;;;6.90;42.60;;;;;;5068260;28;20193;-45
2022/04/17 02:52:58;;;;;;;10.57;6.17;;;6.90;42.60;;;;;;5067182;28;20232;-45
2022/04/17 02:55:24;;;;;;;7.83;5.47;;;6.90;42.70;;;;;;5066358;28;20417;-46
2022/04/17 02:57:50;;;;;;;5.97;5.47;;;6.90;42.80;;;;;;5067398;28;20196;-45
2022/04/17 03:00:16;;;;;;;6.70;5.87;;;6.80;42.80;;;;;;5067111;28;20281;-45
2022/04/17 03:05:37;;;;;;;6.10;5.60;;;6.80;43.10;;;;;;5066751;28;20542;-46
2022/04/17 03:08:04;;;;;;;6.47;5.60;;;6.70;43.10;;;;;;5055010;28;20548;-46
2022/04/17 03:10:30;;;;;;;6.00;5.50;;;6.70;43.20;;;;;;5064291;28;20771;-46
2022/04/17 03:12:56;;;;;;;5.40;5.00;;;6.70;43.40;;;;;;5065847;28;20439;-45
2022/04/17 03:15:22;;;;;;;7.17;5.93;;;6.60;43.40;;;;;;5066708;28;20561;-45
2022/04/17 03:17:48;;;;;;;6.50;5.90;;;6.60;43.50;;;;;;5060021;28;20435;-46
2022/04/17 03:20:14;;;;;;;8.07;6.83;;;6.60;43.60;;;;;;5057997;28;20440;-45
2022/04/17 03:22:43;;;;;;;5.70;5.10;;;6.60;43.70;;;;;;5067886;28;20268;-45
2022/04/17 03:25:09;;;;;;;6.83;6.23;;;6.60;43.80;;;;;;5070293;28;20420;-46
2022/04/17 03:27:35;;;;;;;5.80;5.23;;;6.50;43.90;;;;;;5069703;28;20490;-45
2022/04/17 03:30:02;;;;;;;6.50;5.80;;;6.50;44.10;;;;;;5069558;28;20451;-46
2022/04/17 03:32:27;;;;;;;6.63;5.90;;;6.40;44.10;;;;;;5069699;28;20185;-46
2022/04/17 03:34:53;;;;;;;6.57;5.73;;;6.40;44.20;;;;;;5054315;28;20446;-45
2022/04/17 03:37:19;;;;;;;7.57;6.40;;;6.40;44.30;;;;;;5067145;28;20189;-46
2022/04/17 03:39:45;;;;;;;6.33;5.80;;;6.40;44.40;;;;;;5068735;28;20587;-45
2022/04/17 03:42:11;;;;;;;5.90;5.33;;;6.40;44.50;;;;;;5069552;28;20579;-46
2022/04/17 03:44:38;;;;;;;6.90;6.20;;;6.40;44.50;;;;;;5070003;28;20235;-46
2022/04/17 03:47:06;;;;;;;6.67;6.07;;;6.30;44.50;;;;;;5070140;28;20516;-45
2022/04/17 03:49:32;;;;;;;6.73;6.13;;;6.30;44.70;;;;;;5071287;28;20447;-45
2022/04/17 03:51:58;;;;;;;8.50;5.70;;;6.30;44.70;;;;;;5069287;28;20574;-45
2022/04/17 03:54:24;;;;;;;6.00;5.40;;;6.30;44.80;;;;;;5072071;28;20586;-45
2022/04/17 03:56:50;;;;;;;7.83;7.03;;;6.30;44.90;;;;;;5070827;28;20416;-45
2022/04/17 03:59:16;;;;;;;7.10;6.40;;;6.30;44.90;;;;;;5070250;28;20193;-45
2022/04/17 04:01:41;;;;;;;7.10;6.33;;;6.30;44.90;;;;;;5070896;28;20431;-45
2022/04/17 04:04:07;;;;;;;8.30;6.63;;;6.20;44.80;;;;;;5070556;28;20234;-45
2022/04/17 04:06:33;;;;;;;7.77;7.00;;;6.20;44.90;;;;;;5070367;28;20279;-45
2022/04/17 04:08:59;;;;;;;6.43;5.83;;;6.20;45.50;;;;;;5068386;28;20209;-45
2022/04/17 04:11:25;;;;;;;7.73;5.83;;;6.20;45.10;;;;;;5068743;28;20614;-46
2022/04/17 04:13:51;;;;;;;8.47;6.67;;;6.20;45.10;;;;;;5067810;28;20181;-47
2022/04/17 04:16:16;;;;;;;7.13;6.43;;;6.20;45.20;;;;;;5068408;28;20845;-46
2022/04/17 04:18:42;;;;;;;6.93;6.23;;;6.20;45.20;;;;;;5068974;28;20193;-45
2022/04/17 04:21:07;;;;;;;8.07;7.17;;;6.20;45.30;;;;;;5068978;28;20220;-46
2022/04/17 04:23:33;;;;;;;7.27;6.50;;;6.20;45.30;;;;;;5070390;28;20189;-46
2022/04/17 04:26:00;;;;;;;6.80;6.10;;;6.20;45.30;;;;;;5069795;28;20199;-46
2022/04/17 04:28:37;;;;;;;7.07;6.40;;;6.20;45.20;;;;;;5070683;28;20533;-46
2022/04/17 04:31:11;;;;;;;6.60;5.93;;;6.10;45.20;;;;;;5070353;28;20727;-46
2022/04/17 04:33:38;;;;;;;6.47;5.87;;;6.10;45.20;;;;;;5070316;28;20510;-46
2022/04/17 04:36:05;;;;;;;6.40;5.73;;;6.10;45.20;;;;;;5057407;28;20444;-46
2022/04/17 04:38:32;;;;;;;6.00;5.50;;;6.10;45.20;;;;;;5064278;28;20830;-46
2022/04/17 04:40:59;;;;;;;5.83;5.33;;;6.10;45.30;;;;;;5067638;28;20436;-46
2022/04/17 04:43:25;;;;;;;5.50;5.00;;;6.10;45.20;;;;;;5070346;28;20625;-46
2022/04/17 04:51:40;;;;;;;5.97;5.37;;;6.20;45.20;;;;;;5046297;28;20419;-46
2022/04/17 04:54:07;;;;;;;6.97;6.27;;;6.20;45.20;;;;;;5067903;28;20455;-46
2022/04/17 04:56:33;;;;;;;6.83;5.37;;;6.20;45.30;;;;;;5056964;28;20211;-46
2022/04/17 04:58:58;;;;;;;6.60;5.23;;;6.20;45.20;;;;;;5068848;28;20432;-46
2022/04/17 05:01:24;;;;;;;5.30;4.80;;;6.10;45.20;;;;;;5069357;28;20423;-46
2022/04/17 05:03:50;;;;;;;7.40;5.60;;;6.20;45.20;;;;;;5069911;28;20673;-46
2022/04/17 05:06:16;;;;;;;5.60;4.70;;;6.20;45.50;;;;;;5067233;28;20764;-46
2022/04/17 05:08:42;;;;;;;6.23;5.63;;;6.20;45.00;;;;;;5057453;28;20300;-46
2022/04/17 05:11:08;;;;;;;7.57;5.50;;;6.30;45.10;;;;;;5068342;28;20953;-46
2022/04/17 05:13:34;;;;;;;5.90;4.77;;;6.30;45.00;;;;;;5067595;28;20432;-47
2022/04/17 05:16:00;;;;;;;6.00;4.67;;;6.30;45.00;;;;;;5069124;28;20181;-46
2022/04/17 05:18:26;;;;;;;5.60;5.10;;;6.40;44.90;;;;;;5069819;28;20883;-46
2022/04/17 05:20:53;;;;;;;6.33;5.37;;;6.40;44.60;;;;;;5068654;28;20431;-46
2022/04/17 05:23:25;;;;;;;5.57;5.00;;;6.50;44.50;;;;;;5067182;28;20185;-46
2022/04/17 05:25:53;;;;;;;5.37;4.83;;;6.50;44.40;;;;;;5068334;28;20436;-46
2022/04/17 05:28:19;;;;;;;5.93;5.33;;;6.60;44.30;;;;;;5068914;28;20765;-46
2022/04/17 05:30:45;;;;;;;5.90;5.40;;;6.60;44.40;;;;;;5056367;28;20433;-46
2022/04/17 05:33:10;;;;;;;5.43;4.93;;;6.70;44.50;;;;;;5066960;28;20276;-46
2022/04/17 05:35:36;;;;;;;5.30;4.33;;;6.70;44.40;;;;;;5063340;28;20540;-46
2022/04/17 05:38:03;;;;;;;5.63;5.13;;;6.70;44.40;;;;;;5066169;28;20284;-46
2022/04/17 05:40:29;;;;;;;5.27;4.00;;;6.80;44.40;;;;;;5066420;28;20505;-46
2022/04/17 05:42:57;;;;;;;4.93;4.53;;;6.90;44.40;;;;;;5067963;28;20596;-46
2022/04/17 05:45:23;;;;;;;5.57;5.07;;;6.90;44.30;;;;;;5067017;28;20431;-46
2022/04/17 05:47:49;;;;;;;6.40;4.93;;;7.00;44.00;;;;;;5065195;28;20479;-46
2022/04/17 05:50:14;;;;;;;4.57;4.10;;;7.10;43.90;;;;;;5065628;28;20204;-46
2022/04/17 05:52:41;;;;;;;5.80;4.50;;;7.20;43.70;;;;;;5053219;28;20464;-46
2022/04/17 05:55:09;;;;;;;5.87;4.37;;;7.30;43.60;;;;;;5049360;28;20200;-46
2022/04/17 05:57:35;;;;;;;4.53;4.13;;;7.50;43.60;;;;;;5048096;28;20440;-46
2022/04/17 06:00:05;;;;;;;6.20;4.77;;;7.60;43.30;;;;;;5049131;28;20439;-46
2022/04/17 06:02:35;;;;;;;4.40;4.00;;;7.80;43.20;;;;;;5049225;28;20293;-46
2022/04/17 06:05:01;;;;;;;5.03;4.53;;;7.90;42.90;;;;;;5061710;28;20436;-46
2022/04/17 06:07:27;;;;;;;6.10;4.33;;;8.10;42.80;;;;;;5067913;28;20475;-47
2022/04/17 06:09:53;;;;;;;4.30;3.90;;;8.30;43.00;;;;;;5064118;28;20187;-46
2022/04/17 06:12:19;;;;;;;6.40;4.53;;;8.50;42.40;;;;;;5059754;28;20443;-46
2022/04/17 06:14:45;;;;;;;4.10;3.70;;;8.60;42.10;;;;;;5068632;28;20236;-46
2022/04/17 06:17:11;;;;;;;5.03;4.60;;;8.80;41.90;;;;;;5066948;28;20505;-46
2022/04/17 06:19:37;;;;;;;4.60;4.03;;;9.00;41.70;;;;;;5066314;28;20216;-45
2022/04/17 06:22:04;;;;;;;4.67;4.07;;;9.20;41.30;;;;;;5064969;28;20284;-46
2022/04/17 06:24:30;;;;;;;3.90;3.50;;;9.40;41.10;;;;;;5064038;28;20457;-47
2022/04/17 06:26:55;;;;;;;5.00;4.50;;;9.50;40.80;;;;;;5067838;28;21103;-47
2022/04/17 06:29:21;;;;;;;4.37;3.97;;;9.70;40.40;;;;;;5067313;28;20197;-49
2022/04/17 06:31:47;;;;;;;5.53;4.77;;;9.90;39.80;;;;;;5066433;28;20251;-47
2022/04/17 06:34:12;;;;;;;4.30;3.90;;;9.90;39.60;;;;;;5064671;28;20185;-47
2022/04/17 06:36:39;;;;;;;4.07;3.67;;;10.10;38.80;;;;;;5067240;28;20185;-46
2022/04/17 06:39:05;;;;;;;4.60;4.20;;;10.20;38.80;;;;;;5066931;28;20447;-47
2022/04/17 06:41:31;;;;;;;3.87;3.40;;;10.40;38.60;;;;;;5067636;28;20492;-46
2022/04/17 06:43:56;;;;;;;4.40;3.30;;;10.50;38.40;;;;;;5067532;28;20427;-47
2022/04/17 06:46:22;;;;;;;4.63;4.13;;;10.60;38.20;;;;;;5065402;28;20192;-46
2022/04/17 06:48:48;;;;;;;3.67;3.37;;;10.80;38.20;;;;;;5065305;28;20492;-46
2022/04/17 06:51:14;;;;;;;4.23;3.83;;;11.00;37.90;;;;;;5066022;28;20439;-47
2022/04/17 06:53:39;;;;;;;3.27;3.03;;;11.20;37.60;;;;;;5065289;28;20466;-47
2022/04/17 06:56:07;;;;;;;3.80;3.50;;;11.40;37.50;;;;;;5060503;28;20263;-46
2022/04/17 06:58:32;;;;;;;4.10;3.30;;;11.60;37.10;;;;;;5056559;28;20186;-47
2022/04/17 07:00:58;;;;;;;3.83;3.43;;;11.80;36.80;;;;;;5057128;28;20561;-46
2022/04/17 07:03:23;;;;;;;3.80;3.40;;;12.00;36.60;;;;;;5058136;28;20205;-45
2022/04/17 07:05:49;;;;;;;5.20;3.67;;;12.10;36.50;;;;;;5057956;28;20272;-45
2022/04/17 07:08:15;;;;;;;3.30;3.00;;;12.30;36.10;;;;;;5057437;28;20610;-45
2022/04/17 07:10:41;;;;;;;3.90;3.20;;;12.50;35.90;;;;;;5058344;28;20425;-44
2022/04/17 07:13:18;;;;;;;4.37;3.90;;;12.60;35.40;;;;;;5055893;28;20189;-46
2022/04/17 07:15:43;;;;;;;3.57;3.27;;;12.70;35.10;;;;;;5059742;28;20204;-46
2022/04/17 07:18:09;;;;;;;3.53;3.23;;;12.80;35.00;;;;;;5059623;28;20447;-43
2022/04/17 07:20:35;;;;;;;3.50;3.20;;;13.00;34.90;;;;;;5058482;28;20646;-43
2022/04/17 07:23:01;;;;;;;3.67;2.97;;;13.20;34.90;;;;;;5057909;28;20180;-45
2022/04/17 07:25:27;;;;;;;3.30;3.00;;;13.30;34.60;;;;;;5057814;28;20418;-44
2022/04/17 07:27:55;;;;;;;3.90;2.83;;;13.60;34.20;;;;;;5062740;28;20487;-45
2022/04/17 07:30:30;;;;;;;3.17;2.87;;;13.80;33.70;;;;;;5075965;28;20720;-45
2022/04/17 07:32:57;;;;;;;3.70;3.40;;;13.90;33.50;;;;;;5077899;28;20802;-47
2022/04/17 07:35:24;;;;;;;5.47;3.57;;;14.10;33.20;;;;;;5076727;28;20492;-46
2022/04/17 07:37:51;;;;;;;3.93;3.50;;;14.20;32.50;;;;;;5076764;28;20832;-47
2022/04/17 07:40:25;;;;;;;3.17;2.97;;;14.30;32.70;;;;;;5073365;28;20434;-46
2022/04/17 07:42:51;;;;;;;3.30;3.00;;;14.50;32.90;;;;;;5061621;28;20512;-44
2022/04/17 07:45:17;;;;;;;3.67;3.03;;;14.70;32.90;;;;;;5049362;28;20708;-45
2022/04/17 07:47:43;;;;;;;3.10;2.80;;;14.90;33.10;;;;;;5053629;28;20786;-44
2022/04/17 07:50:12;;;;;;;4.60;3.40;;;15.10;32.70;;;;;;5051600;28;20574;-46
2022/04/17 07:52:39;;;;;;;3.73;2.90;;;15.20;32.10;;;;;;5054154;28;20424;-48
2022/04/17 07:55:05;;;;;;;3.73;3.23;;;15.40;32.20;;;;;;5054315;28;20536;-47
2022/04/17 07:57:53;;;;;;;3.03;2.73;;;15.70;32.00;;;;;;5056008;28;20478;-45
2022/04/17 08:00:19;;;;;;;3.73;2.77;;;15.80;31.80;;;;;;5060575;28;20443;-45
2022/04/17 08:02:50;;;;;;;3.80;3.00;;;16.10;31.90;;;;;;5068705;28;20439;-47
2022/04/17 08:05:16;;;;;;;7.70;4.20;;;16.40;32.20;;;;;;5069113;28;20912;-41
2022/04/17 08:07:42;;;;;;;7.83;4.70;;;16.80;38.50;;;;;;5071682;28;20499;-40
2022/04/17 08:10:08;;;;;;;12.60;7.80;;;17.40;44.00;;;;;;5062378;28;20434;-41
2022/04/17 08:12:34;;;;;;;11.90;6.70;;;18.10;46.10;;;;;;5063271;28;20197;-41
2022/04/17 08:15:00;;;;;;;16.10;6.20;;;18.70;44.80;;;;;;5070105;28;20428;-44
2022/04/17 08:17:26;;;;;;;9.97;6.23;;;19.20;40.20;;;;;;5069719;28;20501;-42
2022/04/17 08:19:51;;;;;;;7.83;4.80;;;19.40;41.00;;;;;;5068447;28;20762;-46
2022/04/17 08:22:17;;;;;;;11.40;4.90;;;19.80;40.50;;;;;;5068437;28;20597;-43
2022/04/17 08:24:43;;;;;;;7.47;4.90;;;20.10;38.60;;;;;;5066420;28;20453;-42
2022/04/17 08:27:09;;;;;;;6.47;4.23;;;20.40;39.20;;;;;;5068868;28;20905;-42
2022/04/17 08:29:35;;;;;;;5.23;4.10;;;20.70;38.10;;;;;;5066454;28;20247;-40
2022/04/17 08:32:00;;;;;;;5.70;3.73;;;20.90;37.00;;;;;;5067952;28;20677;-43
2022/04/17 08:34:26;;;;;;;4.90;4.30;;;21.10;35.70;;;;;;5068357;28;20501;-45
2022/04/17 08:36:52;;;;;;;4.70;3.60;;;21.30;35.60;;;;;;5064259;28;20186;-42
2022/04/17 08:39:17;;;;;;;4.00;3.60;;;21.50;36.10;;;;;;5059951;28;20495;-43
2022/04/17 08:41:45;;;;;;;5.13;3.40;;;21.70;33.50;;;;;;5067742;28;20437;-39
2022/04/17 08:44:11;;;;;;;3.97;3.40;;;21.90;33.30;;;;;;5068033;28;20188;-42
2022/04/17 08:46:36;;;;;;;2.77;2.57;;;22.10;33.20;;;;;;5067081;28;20773;-40
2022/04/17 08:49:02;;;;;;;4.37;3.10;;;22.40;33.10;;;;;;5066168;28;20475;-39
2022/04/17 08:51:28;;;;;;;3.63;2.63;;;22.60;32.00;;;;;;5066316;28;20321;-44
2022/04/17 08:53:56;;;;;;;4.97;2.80;;;23.10;32.00;;;;;;5063748;28;20193;-44
2022/04/17 08:56:22;;;;;;;3.43;2.60;;;24.50;31.00;;;;;;5064161;28;20730;-44
2022/04/17 08:58:47;;;;;;;3.20;2.83;;;25.90;29.40;;;;;;5065002;28;20978;-42
2022/04/17 09:01:16;;;;;;;3.17;2.87;;;26.80;28.30;;;;;;5064466;28;20192;-44
2022/04/17 09:03:49;;;;;;;2.97;2.67;;;27.60;27.80;;;;;;5063834;28;20188;-45
2022/04/17 09:06:19;;;;;;;2.77;2.57;;;28.10;27.20;;;;;;5063929;28;20484;-46
2022/04/17 09:09:01;;;;;;;3.70;2.33;;;28.20;26.30;;;;;;5062192;28;20501;-45
2022/04/17 09:11:28;;;;;;;3.30;3.00;;;28.30;26.00;;;;;;5065326;28;20571;-44
2022/04/17 09:14:03;;;;;;;4.23;3.40;;;28.40;25.30;;;;;;5066220;28;20717;-45
2022/04/17 09:16:38;;;;;;;3.53;2.80;;;27.80;25.00;;;;;;5065296;28;20527;-43
2022/04/17 09:19:15;;;;;;;2.70;2.50;;;27.30;25.50;;;;;;5067445;28;20850;-44
2022/04/17 09:21:40;;;;;;;3.83;2.47;;;27.00;25.70;;;;;;5065709;28;20495;-42
2022/04/17 09:24:24;;;;;;;2.63;2.40;;;26.70;25.20;;;;;;5068439;28;20450;-44
2022/04/17 09:26:54;;;;;;;2.53;1.97;;;26.70;25.30;;;;;;5057852;28;20260;-45
2022/04/17 09:29:24;;;;;;;3.30;2.93;;;26.80;25.00;;;;;;5065695;28;20499;-43
2022/04/17 09:32:00;;;;;;;2.67;2.40;;;26.70;23.90;;;;;;5066250;28;20707;-43
2022/04/17 09:34:26;;;;;;;3.30;2.27;;;26.80;24.00;;;;;;5054513;28;20439;-44
2022/04/17 09:36:56;;;;;;;2.67;2.43;;;26.80;23.30;;;;;;5054233;28;20423;-43
2022/04/17 09:39:22;;;;;;;3.37;2.47;;;26.70;22.80;;;;;;5053453;28;20602;-46
2022/04/17 09:41:55;;;;;;;2.80;2.60;;;26.60;22.90;;;;;;5052015;28;20856;-43
2022/04/17 09:44:35;;;;;;;3.10;2.70;;;26.70;23.20;;;;;;5052041;28;20590;-42
2022/04/17 09:47:01;;;;;;;2.37;2.17;;;27.00;23.30;;;;;;5051210;28;20489;-42
2022/04/17 09:49:27;;;;;;;3.10;2.77;;;27.40;24.00;;;;;;5048734;28;20748;-44
2022/04/17 09:52:09;;;;;;;2.90;2.60;;;27.80;23.20;;;;;;5049436;28;20419;-45
2022/04/17 09:54:35;;;;;;;3.53;2.73;;;28.20;23.60;;;;;;5050572;28;20188;-43
2022/04/17 09:57:01;;;;;;;3.70;2.50;;;28.50;23.40;;;;;;5049577;28;20443;-45
2022/04/17 09:59:27;;;;;;;2.40;2.20;;;28.70;22.80;;;;;;5049419;28;20473;-43
2022/04/17 10:01:55;;;;;;;2.50;2.30;;;28.90;22.90;;;;;;5050075;28;20186;-44
2022/04/17 10:04:24;;;;;;;2.70;2.20;;;29.00;22.50;;;;;;5050077;28;20408;-42
2022/04/17 10:06:54;;;;;;;2.50;2.30;;;29.30;22.60;;;;;;5049604;28;20487;-43
2022/04/17 10:09:21;;;;;;;2.60;2.40;;;29.30;22.00;;;;;;5050320;28;20483;-43
2022/04/17 10:11:48;;;;;;;2.33;2.13;;;29.10;21.80;;;;;;5048335;28;20789;-44
2022/04/17 10:14:15;;;;;;;2.50;2.23;;;29.20;21.60;;;;;;5047409;28;20422;-44
2022/04/17 10:55:21;;;;;;;2.40;2.20;;;31.70;19.60;;;;;;5065552;28;20481;-43
2022/04/17 10:57:48;;;;;;;2.67;1.90;;;31.70;20.00;;;;;;5058104;28;20392;-44
2022/04/17 11:00:36;;;;;;;2.70;2.30;;;31.50;19.90;;;;;;5074702;28;20191;-45
2022/04/17 11:03:11;;;;;;;3.20;2.20;;;31.50;20.30;;;;;;5074854;28;20431;-43
2022/04/17 11:08:23;;;;;;;2.50;2.30;;;31.70;19.80;;;;;;5074706;28;21002;-44
2022/04/17 11:10:57;;;;;;;2.47;2.27;;;31.50;20.20;;;;;;5072995;28;20498;-45
2022/04/17 11:13:26;;;;;;;2.73;1.90;;;31.60;20.50;;;;;;5075391;28;20576;-45
2022/04/17 11:15:54;;;;;;;2.30;1.77;;;31.80;19.80;;;;;;5075193;28;20832;-45
2022/04/17 11:18:23;;;;;;;2.10;1.90;;;32.00;19.90;;;;;;5075927;28;20421;-44
2022/04/17 11:20:53;;;;;;;1.90;1.70;;;32.20;19.90;;;;;;5075365;28;20430;-43
2022/04/17 11:23:58;;;;;;;2.37;1.83;;;32.50;19.60;;;;;;5074718;28;20401;-45
2022/04/17 11:26:53;;;;;;;2.50;2.00;;;32.90;19.40;;;;;;4958123;28;20455;-44
2022/04/17 11:29:48;;;;;;;3.07;2.00;;;33.00;19.10;;;;;;4969503;28;20875;-45
2022/04/17 11:32:17;;;;;;;1.93;1.77;;;33.40;20.00;;;;;;5042080;28;20421;-44
2022/04/17 11:34:44;;;;;;;2.37;2.07;;;33.60;19.00;;;;;;5073977;28;20422;-44
2022/04/17 11:37:10;;;;;;;2.43;2.23;;;33.80;19.40;;;;;;5074576;28;20437;-44
2022/04/17 11:39:38;;;;;;;2.97;2.73;;;34.10;19.40;;;;;;5073804;28;20485;-45
2022/04/17 11:42:06;;;;;;;2.20;2.00;;;34.20;18.80;;;;;;5073277;28;20208;-47
2022/04/17 11:44:32;;;;;;;2.50;2.10;;;34.10;18.90;;;;;;5077029;28;20508;-45
2022/04/17 11:46:58;;;;;;;1.90;1.70;;;34.10;19.00;;;;;;5077269;28;20538;-44
2022/04/17 11:49:24;;;;;;;4.13;2.60;;;34.10;18.80;;;;;;5078104;28;20571;-43
2022/04/17 11:51:49;;;;;;;2.40;2.20;;;34.20;18.70;;;;;;5079481;28;20469;-43
2022/04/17 11:54:31;;;;;;;2.30;2.10;;;34.30;18.90;;;;;;5080132;28;20856;-45
2022/04/17 11:56:57;;;;;;;2.23;2.03;;;34.10;18.80;;;;;;5078358;28;20194;-44
2022/04/17 11:59:23;;;;;;;1.97;1.70;;;34.30;19.10;;;;;;5078473;28;20422;-46
2022/04/17 12:02:16;;;;;;;2.80;2.23;;;34.40;19.80;;;;;;5077742;28;20481;-44
2022/04/17 12:04:46;;;;;;;3.00;2.10;;;35.00;20.00;;;;;;5076106;28;20791;-43
2022/04/17 12:07:13;;;;;;;2.63;2.43;;;35.80;20.00;;;;;;5077129;28;20419;-44
2022/04/17 12:09:40;;;;;;;2.60;2.40;;;36.20;19.40;;;;;;5057151;28;20537;-45
2022/04/17 12:12:12;;;;;;;1.97;1.67;;;36.60;19.30;;;;;;5078450;28;20521;-45
2022/04/17 12:14:38;;;;;;;11.23;2.27;;;36.60;21.80;;;;;;5071316;28;20431;-46
2022/04/17 12:17:05;;;;;;;3.30;2.53;;;36.20;23.00;;;;;;5060806;28;20440;-47
2022/04/17 12:19:31;;;;;;;5.83;2.80;;;35.50;21.80;;;;;;5057293;28;20425;-49
2022/04/17 12:21:57;;;;;;;3.83;2.50;;;34.80;21.50;;;;;;5056537;28;20424;-52
2022/04/17 12:24:25;;;;;;;2.80;2.27;;;34.20;23.50;;;;;;5037937;28;20406;-47
2022/04/17 12:26:52;;;;;;;2.17;1.97;;;33.50;22.90;;;;;;5057226;28;20444;-45
2022/04/17 12:29:18;;;;;;;2.80;2.60;;;33.20;23.60;;;;;;5057257;28;20467;-47
2022/04/17 12:31:44;;;;;;;2.47;2.20;;;32.70;22.80;;;;;;5039221;28;20439;-48
2022/04/17 12:34:14;;;;;;;5.43;2.03;;;32.70;24.00;;;;;;5057642;28;20408;-47
2022/04/17 12:36:43;;;;;;;5.63;2.03;;;32.80;24.30;;;;;;5056437;28;20355;-47
2022/04/17 12:39:09;;;;;;;2.10;1.70;;;33.00;24.50;;;;;;5055494;28;20736;-49
2022/04/17 12:41:42;;;;;;;3.93;2.50;;;33.40;24.20;;;;;;5056679;28;20446;-46
2022/04/17 12:44:09;;;;;;;2.13;1.93;;;33.40;23.00;;;;;;5056614;28;20585;-46
2022/04/17 12:46:44;;;;;;;2.40;2.00;;;33.70;23.70;;;;;;5056950;28;20433;-49
2022/04/17 12:49:18;;;;;;;1.90;1.70;;;34.00;24.10;;;;;;5056902;28;20466;-45
2022/04/17 12:51:59;;;;;;;3.00;2.13;;;34.40;24.70;;;;;;5070596;28;20422;-48
2022/04/17 12:54:33;;;;;;;2.43;2.07;;;34.20;23.10;;;;;;5076418;28;20465;-50
2022/04/17 12:57:08;;;;;;;2.33;1.50;;;34.20;23.60;;;;;;5061510;28;20455;-46
2022/04/17 12:59:50;;;;;;;2.13;1.93;;;34.50;24.30;;;;;;5059104;28;20418;-49
2022/04/17 13:02:17;;;;;;;4.87;1.73;;;34.70;23.60;;;;;;5057118;28;20404;-50
2022/04/17 13:04:47;;;;;;;2.93;2.03;;;34.80;23.80;;;;;;5057006;28;20401;-46
2022/04/17 13:07:16;;;;;;;2.23;2.03;;;35.10;24.10;;;;;;5055912;28;20428;-45
2022/04/17 13:09:53;;;;;;;2.57;2.20;;;35.30;22.50;;;;;;5039606;28;20493;-46
2022/04/17 13:12:34;;;;;;;2.03;1.60;;;35.40;22.60;;;;;;5056783;28;20498;-46
2022/04/17 13:15:01;;;;;;;2.27;1.83;;;35.30;22.80;;;;;;5056712;28;20914;-44
2022/04/17 13:17:27;;;;;;;3.03;2.33;;;35.60;23.20;;;;;;5055514;28;20837;-48
2022/04/17 13:19:53;;;;;;;2.93;2.30;;;35.50;22.50;;;;;;5054654;28;20426;-45
2022/04/17 13:22:19;;;;;;;3.00;2.10;;;35.20;21.90;;;;;;5056680;28;20661;-45
2022/04/17 13:24:45;;;;;;;2.17;1.97;;;35.20;23.00;;;;;;5058030;28;20186;-52
2022/04/17 13:27:13;;;;;;;2.47;1.90;;;34.90;22.30;;;;;;5058090;28;20190;-47
2022/04/17 13:29:39;;;;;;;1.80;1.60;;;34.70;22.20;;;;;;5058428;28;20424;-48
2022/04/17 13:32:09;;;;;;;2.03;1.83;;;34.80;23.00;;;;;;5056834;28;20876;-47
2022/04/17 13:34:36;;;;;;;1.80;1.70;;;35.00;23.00;;;;;;5056280;28;20571;-45
2022/04/17 13:39:48;;;;;;;2.13;1.70;;;35.40;23.60;;;;;;5054704;28;20706;-46
2022/04/17 13:42:13;;;;;;;2.73;2.07;;;35.60;23.50;;;;;;5053708;28;20515;-48
2022/04/17 13:44:39;;;;;;;2.57;1.97;;;35.60;22.10;;;;;;5053671;28;20504;-47
2022/04/17 13:47:06;;;;;;;2.30;2.10;;;35.60;21.20;;;;;;5055689;28;20487;-45
2022/04/17 13:49:31;;;;;;;2.20;2.00;;;35.60;21.90;;;;;;5056133;28;20240;-46
2022/04/17 13:51:57;;;;;;;2.77;1.73;;;35.80;23.10;;;;;;5056832;28;20523;-44
2022/04/17 13:54:23;;;;;;;2.30;2.10;;;36.00;23.20;;;;;;5056340;28;20242;-45